Time;durP1;ratioP1;P1;durP2;ratioP2;P2;SDS_P1;SDS_P2;PMS_P1;PMS_P2;Temp;Humidity;BMP_temperature;BMP_pressure;BME280_temperature;BME280_humidity;BME280_pressure;Samples;Min_cycle;Max_cycle;Signal;HPM_P1;HPM_P2
2022/09/15 00:01:02;;;;;;;7.17;4.53;;;26.50;76.60;;;;;;5039657;28;87076;-51
2022/09/15 00:03:30;;;;;;;4.43;3.30;;;26.50;76.30;;;;;;5038445;28;87535;-51
2022/09/15 00:05:58;;;;;;;5.93;4.00;;;26.50;75.70;;;;;;5039512;28;89206;-51
2022/09/15 00:08:26;;;;;;;5.90;3.40;;;26.50;77.20;;;;;;5041053;28;86987;-51
2022/09/15 00:10:56;;;;;;;7.00;4.33;;;26.50;76.90;;;;;;5041222;28;87074;-51
2022/09/15 00:13:24;;;;;;;4.43;3.50;;;26.50;78.10;;;;;;5040505;28;88165;-51
2022/09/15 00:15:53;;;;;;;7.53;4.53;;;26.50;79.10;;;;;;5040900;28;88887;-51
2022/09/15 00:18:21;;;;;;;7.60;4.37;;;26.50;76.90;;;;;;5040744;28;87151;-51
2022/09/15 00:20:49;;;;;;;6.20;4.03;;;26.50;78.00;;;;;;5040246;28;87107;-51
2022/09/15 00:23:17;;;;;;;4.70;3.63;;;26.40;78.40;;;;;;5024406;28;88964;-51
2022/09/15 00:25:46;;;;;;;4.77;3.30;;;;;;;;;;5020742;28;88291;-51
2022/09/15 00:28:14;;;;;;;10.40;4.30;;;26.40;81.80;;;;;;5020461;28;86960;-51
2022/09/15 00:30:43;;;;;;;4.53;3.07;;;26.50;78.00;;;;;;5020466;28;88115;-51
2022/09/15 00:33:12;;;;;;;6.00;3.13;;;26.50;80.30;;;;;;5020103;28;88229;-51
2022/09/15 00:35:41;;;;;;;3.77;2.90;;;26.50;78.60;;;;;;5022424;28;87418;-51
2022/09/15 00:38:09;;;;;;;5.00;2.70;;;26.50;80.90;;;;;;5040912;28;87255;-50
2022/09/15 00:40:43;;;;;;;6.40;3.77;;;26.40;79.80;;;;;;5040344;28;86136;-51
2022/09/15 00:43:11;;;;;;;4.00;2.30;;;26.40;74.30;;;;;;5039223;28;89115;-50
2022/09/15 00:45:39;;;;;;;7.70;3.17;;;26.50;76.40;;;;;;5039696;28;88876;-51
2022/09/15 00:48:09;;;;;;;5.30;2.77;;;26.40;75.90;;;;;;5037753;28;88390;-51
2022/09/15 00:50:38;;;;;;;4.87;3.00;;;26.40;77.80;;;;;;5033358;28;87042;-51
2022/09/15 00:53:07;;;;;;;3.47;2.63;;;26.40;75.80;;;;;;5020563;28;89033;-50
2022/09/15 00:55:37;;;;;;;4.10;3.10;;;26.40;74.80;;;;;;5039516;28;86991;-50
2022/09/15 00:58:06;;;;;;;5.40;2.90;;;26.40;78.40;;;;;;5039248;28;87069;-50
2022/09/15 01:00:35;;;;;;;3.17;2.40;;;26.40;77.90;;;;;;5039860;28;87067;-50
2022/09/15 01:03:03;;;;;;;3.50;2.50;;;26.40;76.00;;;;;;5039449;28;89048;-50
2022/09/15 01:05:41;;;;;;;4.50;2.37;;;26.40;76.60;;;;;;5040183;28;87610;-50
2022/09/15 01:08:10;;;;;;;2.80;2.50;;;26.40;77.40;;;;;;5019858;28;87209;-49
2022/09/15 01:10:39;;;;;;;6.50;3.20;;;26.40;76.80;;;;;;5020208;28;86933;-49
2022/09/15 01:13:09;;;;;;;5.43;3.33;;;26.40;75.00;;;;;;5020404;28;89766;-49
2022/09/15 01:15:40;;;;;;;3.13;2.23;;;26.30;78.20;;;;;;5027589;28;88862;-50
2022/09/15 01:18:13;;;;;;;4.10;2.40;;;26.40;75.50;;;;;;5030838;28;87256;-50
2022/09/15 01:20:57;;;;;;;2.60;2.23;;;26.40;74.40;;;;;;5029339;28;86958;-50
2022/09/15 01:23:53;;;;;;;4.17;2.73;;;26.40;78.20;;;;;;5040328;28;89140;-49
2022/09/15 01:26:48;;;;;;;5.17;2.80;;;26.40;79.90;;;;;;5021383;28;88761;-50
2022/09/15 01:29:29;;;;;;;2.50;1.93;;;26.40;77.60;;;;;;5033995;28;86972;-50
2022/09/15 01:34:47;;;;;;;3.73;2.20;;;26.30;75.50;;;;;;5040523;28;89164;-50
2022/09/15 01:37:17;;;;;;;2.90;1.80;;;26.30;76.80;;;;;;5033560;28;88431;-50
2022/09/15 01:39:45;;;;;;;1.67;1.57;;;26.30;78.10;;;;;;5033453;28;88571;-50
2022/09/15 01:42:14;;;;;;;3.80;2.00;;;26.30;77.80;;;;;;5034862;28;87129;-50
2022/09/15 01:44:45;;;;;;;5.27;2.10;;;26.30;76.20;;;;;;5031425;28;87824;-50
2022/09/15 01:47:14;;;;;;;3.53;2.47;;;26.30;76.20;;;;;;5024544;28;88627;-49
2022/09/15 01:49:44;;;;;;;3.57;2.43;;;26.30;80.30;;;;;;5011509;28;87051;-50
2022/09/15 01:52:13;;;;;;;4.50;2.20;;;26.30;78.10;;;;;;5010794;28;88311;-50
2022/09/15 01:54:43;;;;;;;5.33;2.33;;;26.30;77.40;;;;;;5011446;28;87897;-50
2022/09/15 01:57:11;;;;;;;3.17;1.83;;;26.30;76.30;;;;;;5015986;28;87583;-50
2022/09/15 01:59:39;;;;;;;2.57;1.50;;;26.30;79.70;;;;;;5011937;28;87113;-50
2022/09/15 02:02:10;;;;;;;2.97;1.97;;;26.30;78.10;;;;;;5041965;28;87456;-50
2022/09/15 02:04:40;;;;;;;2.57;1.70;;;26.20;77.00;;;;;;5040866;28;89984;-50
2022/09/15 02:07:11;;;;;;;2.40;1.70;;;26.30;82.30;;;;;;5023341;28;88601;-50
2022/09/15 02:09:40;;;;;;;3.23;2.23;;;;;;;;;;5023662;28;86876;-50
2022/09/15 02:12:11;;;;;;;2.67;2.00;;;26.20;80.90;;;;;;5033723;28;87082;-50
2022/09/15 02:14:47;;;;;;;2.70;2.23;;;26.30;82.20;;;;;;5024063;28;89610;-50
2022/09/15 02:17:18;;;;;;;2.50;2.30;;;26.30;81.60;;;;;;5021595;28;88560;-50
2022/09/15 02:19:48;;;;;;;3.40;2.10;;;26.20;78.80;;;;;;5022958;28;86925;-50
2022/09/15 02:22:19;;;;;;;10.97;2.10;;;;;;;;;;5042095;28;88462;-49
2022/09/15 02:24:50;;;;;;;3.93;2.47;;;26.20;80.30;;;;;;5042940;28;89138;-50
2022/09/15 02:27:20;;;;;;;4.27;2.73;;;26.20;80.00;;;;;;5036679;28;87794;-50
2022/09/15 02:29:48;;;;;;;8.30;3.57;;;26.20;79.30;;;;;;5021452;28;88029;-50
2022/09/15 02:32:18;;;;;;;4.03;2.37;;;26.20;80.60;;;;;;5027035;28;87054;-50
2022/09/15 02:34:47;;;;;;;5.73;2.97;;;26.20;77.70;;;;;;5042610;28;87879;-50
2022/09/15 02:37:16;;;;;;;4.63;3.27;;;;;;;;;;5022429;28;87112;-50
2022/09/15 02:39:46;;;;;;;5.93;3.57;;;;;;;;;;5031481;28;87103;-50
2022/09/15 02:42:15;;;;;;;4.77;2.63;;;;;;;;;;5041394;28;87616;-50
2022/09/15 02:44:42;;;;;;;4.77;3.07;;;26.20;80.10;;;;;;5042661;28;88145;-49
2022/09/15 02:47:12;;;;;;;4.23;2.80;;;;;;;;;;5039998;27;89032;-50
2022/09/15 02:49:41;;;;;;;5.97;3.53;;;26.00;79.60;;;;;;5064195;27;87124;-50
2022/09/15 02:52:09;;;;;;;7.43;3.53;;;26.20;81.90;;;;;;5061756;27;87213;-50
2022/09/15 02:54:37;;;;;;;5.23;3.20;;;;;;;;;;5061269;27;89991;-49
2022/09/15 02:57:05;;;;;;;7.03;3.97;;;25.80;79.80;;;;;;5062751;27;88536;-50
2022/09/15 03:02:16;;;;;;;5.47;3.13;;;26.30;85.70;;;;;;5038171;27;87655;-49
2022/09/15 03:04:46;;;;;;;3.70;2.50;;;26.20;81.10;;;;;;5062863;27;88158;-50
2022/09/15 03:07:14;;;;;;;4.17;2.67;;;;;;;;;;5033111;27;88934;-50
2022/09/15 03:09:42;;;;;;;4.97;3.17;;;;;;;;;;5050233;27;87041;-49
2022/09/15 03:12:10;;;;;;;5.63;3.20;;;26.10;84.60;;;;;;5061951;27;86295;-50
2022/09/15 03:14:38;;;;;;;5.33;3.00;;;26.10;79.30;;;;;;5062093;27;87868;-50
2022/09/15 03:17:06;;;;;;;8.60;3.87;;;26.10;76.60;;;;;;5059852;27;87904;-49
2022/09/15 03:19:34;;;;;;;6.07;3.50;;;;;;;;;;5062334;27;88050;-50
2022/09/15 03:22:04;;;;;;;7.40;3.47;;;;;;;;;;5060876;27;89382;-50
2022/09/15 03:24:32;;;;;;;5.10;3.37;;;;;;;;;;5062894;27;87975;-50
2022/09/15 03:27:00;;;;;;;6.13;3.53;;;26.00;84.50;;;;;;5063047;27;88705;-50
2022/09/15 03:29:28;;;;;;;4.37;3.63;;;;;;;;;;5063223;27;86748;-50
2022/09/15 03:31:56;;;;;;;4.87;3.70;;;26.00;81.20;;;;;;5060861;27;87088;-49
2022/09/15 03:34:24;;;;;;;5.70;4.07;;;26.00;80.70;;;;;;5061856;27;88334;-50
2022/09/15 03:36:52;;;;;;;6.20;3.80;;;26.10;80.30;;;;;;5061126;27;87543;-50
2022/09/15 03:39:23;;;;;;;6.03;4.03;;;;;;;;;;5059419;27;86993;-50
2022/09/15 03:41:51;;;;;;;5.33;3.17;;;;;;;;;;5062164;27;86977;-50
2022/09/15 03:44:19;;;;;;;7.20;4.33;;;26.10;82.40;;;;;;5061541;27;88676;-49
2022/09/15 03:46:47;;;;;;;9.80;4.20;;;;;;;;;;5055226;27;88540;-49
2022/09/15 03:49:17;;;;;;;7.10;3.90;;;;;;;;;;5023434;28;86989;-49
2022/09/15 03:51:45;;;;;;;8.60;4.73;;;;;;;;;;5022478;28;87162;-49
2022/09/15 03:54:13;;;;;;;7.57;4.40;;;;;;;;;;5022133;28;88287;-52
2022/09/15 03:56:46;;;;;;;10.40;4.67;;;;;;;;;;5021760;28;88468;-51
2022/09/15 03:59:14;;;;;;;10.57;5.53;;;;;;;;;;5022256;28;87029;-50
2022/09/15 04:01:43;;;;;;;8.93;5.30;;;;;;;;;;5019064;28;86487;-50
2022/09/15 04:04:11;;;;;;;10.97;5.97;;;;;;;;;;5011674;28;89076;-50
2022/09/15 04:06:40;;;;;;;8.93;5.40;;;26.00;83.70;;;;;;5013878;28;88612;-49
2022/09/15 04:09:07;;;;;;;9.27;6.07;;;26.00;78.00;;;;;;5012422;28;89522;-53
2022/09/15 04:11:37;;;;;;;9.17;5.53;;;26.00;83.00;;;;;;5011388;28;88977;-50
2022/09/15 04:14:06;;;;;;;10.77;6.77;;;26.00;75.70;;;;;;5009316;28;87933;-50
2022/09/15 04:16:34;;;;;;;10.73;6.33;;;26.00;74.80;;;;;;5011391;28;88956;-50
2022/09/15 04:19:02;;;;;;;13.03;7.23;;;26.00;74.00;;;;;;5020091;28;87511;-50
2022/09/15 04:21:31;;;;;;;17.00;8.63;;;26.00;78.30;;;;;;5018799;28;86953;-50
2022/09/15 04:23:59;;;;;;;12.00;7.20;;;26.00;84.30;;;;;;5015808;28;87138;-50
2022/09/15 04:26:28;;;;;;;11.17;6.80;;;26.00;75.90;;;;;;5014015;28;87933;-50
2022/09/15 04:28:56;;;;;;;10.17;6.33;;;26.00;82.00;;;;;;5020534;28;86726;-50
2022/09/15 04:31:32;;;;;;;9.03;6.17;;;26.00;76.90;;;;;;5036413;28;86847;-49
2022/09/15 04:34:00;;;;;;;13.83;6.93;;;26.00;84.50;;;;;;5020562;28;89364;-50
2022/09/15 04:36:28;;;;;;;10.10;7.00;;;26.00;82.70;;;;;;5020647;28;89664;-50
2022/09/15 04:38:56;;;;;;;10.27;7.40;;;26.00;83.60;;;;;;5020684;28;86968;-50
2022/09/15 04:41:25;;;;;;;9.07;6.23;;;26.00;84.70;;;;;;5021471;28;87012;-50
2022/09/15 04:43:53;;;;;;;9.03;5.93;;;26.00;85.30;;;;;;5039134;28;87930;-50
2022/09/15 04:46:21;;;;;;;8.43;6.07;;;26.00;84.90;;;;;;5020586;28;88575;-50
2022/09/15 04:48:50;;;;;;;7.40;4.90;;;26.00;84.90;;;;;;5040775;28;86854;-50
2022/09/15 04:51:20;;;;;;;9.17;6.10;;;26.00;84.00;;;;;;5040767;28;86344;-50
2022/09/15 04:53:48;;;;;;;7.80;5.17;;;26.00;84.20;;;;;;5041074;28;89161;-50
2022/09/15 04:56:17;;;;;;;7.13;4.47;;;26.00;85.40;;;;;;5040775;28;87935;-49
2022/09/15 04:58:47;;;;;;;7.27;4.43;;;26.00;81.40;;;;;;5041180;28;87695;-49
2022/09/15 05:01:16;;;;;;;6.77;4.17;;;;;;;;;;5040211;28;87205;-50
2022/09/15 05:03:45;;;;;;;5.67;3.73;;;25.90;86.20;;;;;;5040398;28;89139;-50
2022/09/15 05:06:15;;;;;;;4.97;3.27;;;26.00;79.40;;;;;;5040224;28;87915;-50
2022/09/15 05:08:43;;;;;;;5.97;3.63;;;26.00;78.50;;;;;;5032979;28;87011;-50
2022/09/15 05:11:12;;;;;;;6.13;3.50;;;25.90;80.70;;;;;;5041148;28;87187;-50
2022/09/15 05:13:40;;;;;;;3.90;2.90;;;25.90;76.80;;;;;;5040780;28;87905;-49
2022/09/15 05:16:10;;;;;;;3.03;2.70;;;26.00;76.40;;;;;;5042741;27;88987;-50
2022/09/15 05:18:39;;;;;;;6.37;2.83;;;26.00;79.40;;;;;;5044309;28;87057;-50
2022/09/15 05:21:07;;;;;;;2.93;2.60;;;25.90;80.50;;;;;;5043893;28;86987;-50
2022/09/15 05:23:36;;;;;;;4.53;3.10;;;25.90;77.90;;;;;;5043855;28;88824;-49
2022/09/15 05:26:06;;;;;;;6.43;3.40;;;25.90;80.30;;;;;;5044439;28;89853;-50
2022/09/15 05:28:35;;;;;;;5.50;2.10;;;25.90;79.60;;;;;;5044611;28;87164;-51
2022/09/15 05:31:07;;;;;;;3.07;2.63;;;25.90;81.00;;;;;;5044552;28;86930;-51
2022/09/15 05:33:35;;;;;;;3.47;2.60;;;25.90;77.30;;;;;;5044033;28;87140;-51
2022/09/15 05:36:03;;;;;;;3.83;2.23;;;25.90;79.60;;;;;;5044472;28;87501;-50
2022/09/15 05:38:32;;;;;;;2.27;2.00;;;;;;;;;;5034629;28;87022;-51
2022/09/15 05:41:05;;;;;;;5.30;2.00;;;;;;;;;;5037417;28;86214;-51
2022/09/15 05:43:33;;;;;;;3.17;2.20;;;26.10;84.60;;;;;;5043679;28;89240;-51
2022/09/15 05:46:01;;;;;;;3.10;2.33;;;25.90;78.80;;;;;;5043324;28;88676;-50
2022/09/15 05:48:29;;;;;;;5.67;2.20;;;25.90;79.70;;;;;;5025593;28;87769;-50
2022/09/15 05:50:57;;;;;;;3.10;1.93;;;25.90;79.60;;;;;;5023859;28;87058;-50
2022/09/15 05:53:25;;;;;;;3.20;1.93;;;25.90;77.40;;;;;;5032606;28;88978;-51
2022/09/15 05:55:57;;;;;;;2.87;1.90;;;25.90;76.80;;;;;;5038794;28;89173;-50
2022/09/15 05:58:26;;;;;;;3.47;1.73;;;25.80;77.80;;;;;;5024391;28;87058;-51
2022/09/15 06:00:54;;;;;;;1.50;1.40;;;25.90;81.20;;;;;;5024053;28;86978;-50
2022/09/15 06:03:22;;;;;;;3.67;1.23;;;25.90;80.00;;;;;;5023816;28;89179;-51
2022/09/15 06:05:59;;;;;;;2.43;1.53;;;;;;;;;;5008342;28;88958;-51
2022/09/15 06:08:30;;;;;;;1.37;1.20;;;;;;;;;;5022631;28;86894;-51
2022/09/15 06:11:02;;;;;;;2.60;1.00;;;26.00;85.50;;;;;;5023274;28;87072;-51
2022/09/15 06:13:32;;;;;;;2.03;1.17;;;25.90;79.10;;;;;;5022861;28;90043;-51
2022/09/15 06:16:04;;;;;;;1.60;0.80;;;;;;;;;;5023255;28;88329;-51
2022/09/15 06:18:33;;;;;;;1.03;0.93;;;;;;;;;;5024068;28;86867;-51
2022/09/15 06:21:05;;;;;;;2.13;1.00;;;;;;;;;;5035820;28;86775;-51
2022/09/15 06:23:33;;;;;;;0.97;0.97;;;;;;;;;;5043000;28;89056;-51
2022/09/15 06:26:06;;;;;;;2.87;0.97;;;25.70;82.30;;;;;;5025388;28;88570;-51
2022/09/15 06:28:35;;;;;;;1.33;1.00;;;25.80;79.40;;;;;;5012089;28;87046;-51
2022/09/15 06:31:03;;;;;;;1.53;1.30;;;;;;;;;;5023107;28;86419;-51
2022/09/15 06:33:31;;;;;;;1.63;1.37;;;25.80;81.40;;;;;;5006723;28;88854;-51
2022/09/15 06:36:03;;;;;;;0.90;0.90;;;25.90;79.80;;;;;;5023108;28;88941;-51
2022/09/15 06:38:31;;;;;;;2.80;0.97;;;25.80;81.60;;;;;;5025012;28;88023;-50
2022/09/15 06:40:59;;;;;;;1.37;1.07;;;25.80;77.70;;;;;;5043294;28;89203;-52
2022/09/15 06:43:27;;;;;;;3.20;0.67;;;25.90;78.40;;;;;;5042917;28;88929;-52
2022/09/15 06:46:03;;;;;;;3.00;0.63;;;25.80;79.70;;;;;;5028545;28;87649;-52
2022/09/15 06:48:32;;;;;;;1.10;0.77;;;25.80;80.00;;;;;;5039563;28;87196;-50
2022/09/15 06:51:00;;;;;;;0.70;0.70;;;25.90;79.90;;;;;;5042252;28;86722;-50
2022/09/15 06:53:29;;;;;;;0.73;0.70;;;25.80;80.00;;;;;;5042387;28;89062;-51
2022/09/15 06:56:02;;;;;;;0.47;0.47;;;25.90;81.00;;;;;;5043145;28;88559;-51
2022/09/15 06:58:30;;;;;;;2.00;1.03;;;25.80;78.30;;;;;;5042750;28;87058;-51
2022/09/15 07:01:02;;;;;;;2.33;0.93;;;25.80;79.50;;;;;;5043112;28;87066;-51
2022/09/15 07:03:30;;;;;;;0.40;0.40;;;25.80;78.60;;;;;;5041616;28;88576;-51
2022/09/15 07:05:58;;;;;;;2.23;0.80;;;25.80;77.80;;;;;;5042511;28;89788;-50
2022/09/15 07:08:26;;;;;;;0.60;0.60;;;25.80;79.20;;;;;;5040192;28;87044;-51
2022/09/15 07:10:54;;;;;;;2.37;0.67;;;25.80;79.20;;;;;;5042473;28;87045;-51
2022/09/15 07:13:22;;;;;;;2.13;0.67;;;25.80;78.70;;;;;;5042033;28;87873;-51
2022/09/15 07:15:51;;;;;;;1.27;0.70;;;25.90;80.70;;;;;;5040553;28;88649;-51
2022/09/15 07:18:21;;;;;;;1.43;0.70;;;25.90;79.20;;;;;;5037174;28;86809;-51
2022/09/15 07:20:49;;;;;;;2.20;0.77;;;25.90;80.10;;;;;;5042678;28;86131;-51
2022/09/15 07:23:17;;;;;;;2.80;0.70;;;25.90;76.70;;;;;;5042578;28;88792;-51
2022/09/15 07:25:45;;;;;;;1.13;0.50;;;;;;;;;;5041839;28;88816;-50
2022/09/15 07:28:13;;;;;;;0.50;0.50;;;25.80;79.50;;;;;;5042318;28;87904;-51
2022/09/15 07:30:41;;;;;;;1.47;0.70;;;25.90;78.50;;;;;;5042847;28;87009;-51
2022/09/15 07:33:11;;;;;;;1.13;0.57;;;25.90;79.40;;;;;;5042565;28;88697;-51
2022/09/15 07:35:42;;;;;;;2.00;0.57;;;25.90;77.90;;;;;;5042223;28;87778;-51
2022/09/15 07:38:10;;;;;;;0.30;0.30;;;25.90;79.40;;;;;;5039931;28;87776;-51
2022/09/15 07:40:38;;;;;;;0.63;0.40;;;25.90;81.00;;;;;;5034362;28;87080;-51
2022/09/15 07:43:06;;;;;;;0.50;0.40;;;25.90;76.60;;;;;;5041927;28;88822;-50
2022/09/15 07:45:35;;;;;;;0.77;0.60;;;25.80;75.70;;;;;;5041961;28;88882;-51
2022/09/15 07:48:03;;;;;;;0.93;0.83;;;25.80;75.20;;;;;;5053259;27;87146;-51
2022/09/15 07:50:31;;;;;;;1.30;0.40;;;25.80;76.80;;;;;;5042379;27;88605;-51
2022/09/15 07:53:00;;;;;;;0.77;0.40;;;25.80;85.30;;;;;;5042267;27;89786;-51
2022/09/15 07:55:29;;;;;;;1.60;0.53;;;25.80;80.50;;;;;;5056110;27;88582;-51
2022/09/15 07:57:57;;;;;;;1.33;0.47;;;25.80;81.70;;;;;;5063063;27;87003;-50
2022/09/15 08:00:26;;;;;;;0.63;0.53;;;;;;;;;;5050837;27;87014;-50
2022/09/15 08:02:54;;;;;;;1.80;0.70;;;25.80;81.60;;;;;;5047621;27;89066;-50
2022/09/15 08:05:25;;;;;;;0.53;0.40;;;25.70;77.00;;;;;;5061997;27;88782;-50
2022/09/15 08:07:54;;;;;;;1.27;0.40;;;25.80;76.20;;;;;;5058370;27;86864;-50
2022/09/15 08:10:23;;;;;;;0.80;0.37;;;25.70;76.30;;;;;;5049705;27;86160;-51
2022/09/15 08:12:52;;;;;;;0.77;0.70;;;25.70;79.30;;;;;;5060392;27;89082;-51
2022/09/15 08:15:20;;;;;;;0.70;0.40;;;25.80;80.60;;;;;;5041998;28;88567;-51
2022/09/15 08:17:47;;;;;;;0.90;0.50;;;25.80;78.10;;;;;;5040917;28;88922;-51
2022/09/15 08:20:15;;;;;;;0.70;0.40;;;25.80;76.60;;;;;;5041692;28;86790;-51
2022/09/15 08:22:44;;;;;;;2.40;0.50;;;;;;;;;;5021379;28;87895;-51
2022/09/15 08:25:12;;;;;;;0.83;0.40;;;25.80;83.00;;;;;;5042350;27;88640;-51
2022/09/15 08:27:42;;;;;;;1.17;0.40;;;;;;;;;;5058127;27;87064;-50
2022/09/15 08:30:10;;;;;;;0.30;0.30;;;;;;;;;;5056613;27;87005;-51
2022/09/15 08:32:38;;;;;;;0.77;0.57;;;25.80;83.40;;;;;;5042177;28;87940;-50
2022/09/15 08:35:07;;;;;;;2.33;0.50;;;;;;;;;;5041890;28;88575;-51
2022/09/15 08:37:35;;;;;;;1.00;0.70;;;25.80;79.40;;;;;;5041929;28;87096;-50
2022/09/15 08:40:04;;;;;;;1.80;0.53;;;25.80;80.50;;;;;;5041657;28;87733;-51
2022/09/15 08:42:32;;;;;;;0.27;0.20;;;;;;;;;;5042659;27;89031;-51
2022/09/15 08:45:03;;;;;;;1.67;0.40;;;25.70;79.20;;;;;;5044430;27;89575;-51
2022/09/15 08:47:32;;;;;;;0.20;0.17;;;;;;;;;;5061368;27;87029;-54
2022/09/15 08:50:02;;;;;;;0.67;0.30;;;25.70;81.50;;;;;;5065397;27;86992;-52
2022/09/15 08:52:32;;;;;;;1.00;0.40;;;25.70;81.50;;;;;;5068615;27;89031;-50
2022/09/15 08:55:03;;;;;;;1.03;0.60;;;25.80;81.50;;;;;;5068744;27;88577;-50
2022/09/15 08:57:31;;;;;;;1.00;0.47;;;25.80;78.80;;;;;;5066476;27;86957;-50
2022/09/15 09:00:01;;;;;;;0.57;0.37;;;25.80;77.80;;;;;;5054537;27;86231;-50
2022/09/15 09:02:49;;;;;;;0.33;0.33;;;25.70;77.60;;;;;;5048474;28;89146;-50
2022/09/15 09:05:23;;;;;;;0.90;0.30;;;;;;;;;;5059472;27;87482;-50
2022/09/15 09:07:59;;;;;;;0.93;0.20;;;25.70;83.10;;;;;;5047988;28;88089;-50
2022/09/15 09:10:32;;;;;;;0.60;0.50;;;25.80;77.80;;;;;;5047672;28;87694;-50
2022/09/15 09:13:07;;;;;;;1.20;0.60;;;25.80;77.30;;;;;;5048148;28;88831;-51
2022/09/15 09:15:42;;;;;;;2.93;0.33;;;25.80;78.80;;;;;;5048886;27;88588;-51
2022/09/15 09:18:52;;;;;;;4.67;0.77;;;25.80;80.50;;;;;;5048163;27;87395;-51
2022/09/15 09:21:23;;;;;;;0.43;0.30;;;25.90;82.40;;;;;;4985580;28;87613;-51
2022/09/15 09:23:56;;;;;;;3.03;0.50;;;25.90;78.60;;;;;;4985484;28;88750;-51
2022/09/15 09:26:24;;;;;;;0.10;0.10;;;25.80;77.00;;;;;;5017316;27;89071;-51
2022/09/15 09:28:54;;;;;;;0.40;0.40;;;25.80;75.30;;;;;;5066368;27;86996;-53
2022/09/15 09:31:23;;;;;;;3.20;0.50;;;25.80;74.80;;;;;;5068433;27;86982;-51
2022/09/15 09:33:53;;;;;;;0.63;0.50;;;25.90;74.70;;;;;;5054981;27;88898;-51
2022/09/15 09:36:21;;;;;;;1.17;0.50;;;25.90;74.20;;;;;;5047859;28;89753;-51
2022/09/15 09:38:49;;;;;;;1.80;0.50;;;25.90;74.00;;;;;;5063911;27;87031;-51
2022/09/15 09:41:17;;;;;;;1.83;0.57;;;25.90;73.80;;;;;;5047257;28;87045;-51
2022/09/15 09:43:47;;;;;;;0.30;0.30;;;26.00;74.60;;;;;;5047572;28;88732;-51
2022/09/15 09:46:16;;;;;;;0.53;0.50;;;26.00;75.30;;;;;;5047547;28;88483;-51
2022/09/15 09:48:48;;;;;;;2.00;0.67;;;26.00;77.20;;;;;;5046552;28;87069;-51
2022/09/15 09:51:37;;;;;;;0.70;0.70;;;26.00;76.90;;;;;;5048085;27;86219;-51
2022/09/15 09:54:08;;;;;;;0.63;0.43;;;26.00;77.50;;;;;;5048573;27;89371;-50
2022/09/15 09:56:37;;;;;;;0.30;0.30;;;26.00;78.10;;;;;;5047443;28;89059;-51
2022/09/15 09:59:06;;;;;;;0.57;0.40;;;26.00;78.00;;;;;;5057478;27;87893;-51
2022/09/15 10:01:34;;;;;;;1.27;0.33;;;26.00;79.20;;;;;;5064769;27;87035;-51
2022/09/15 10:04:15;;;;;;;0.37;0.30;;;26.00;78.30;;;;;;5064065;27;89140;-51
2022/09/15 10:06:43;;;;;;;0.67;0.50;;;26.00;78.50;;;;;;5061857;27;88834;-51
2022/09/15 10:09:15;;;;;;;0.83;0.30;;;26.00;78.20;;;;;;5058109;27;87905;-51
2022/09/15 10:11:44;;;;;;;0.43;0.30;;;26.00;78.40;;;;;;5044923;27;87225;-50
2022/09/15 10:14:22;;;;;;;1.43;0.40;;;26.00;78.60;;;;;;5043930;28;89208;-50
2022/09/15 10:17:01;;;;;;;0.40;0.40;;;26.00;78.00;;;;;;5028910;27;87755;-51
2022/09/15 10:19:31;;;;;;;0.73;0.40;;;26.00;78.50;;;;;;5050157;27;87851;-51
2022/09/15 10:22:00;;;;;;;0.43;0.27;;;26.00;77.70;;;;;;5042669;28;87048;-51
2022/09/15 10:24:33;;;;;;;0.37;0.37;;;26.00;77.20;;;;;;5042893;28;90181;-51
2022/09/15 10:27:18;;;;;;;0.40;0.40;;;26.00;77.70;;;;;;5042851;28;89832;-51
2022/09/15 10:29:46;;;;;;;0.20;0.20;;;26.00;77.50;;;;;;5043720;28;87053;-50
2022/09/15 10:32:32;;;;;;;0.80;0.30;;;26.00;77.80;;;;;;5043992;28;87056;-51
2022/09/15 10:35:07;;;;;;;3.03;0.60;;;26.00;78.20;;;;;;5044029;28;88890;-51
2022/09/15 10:37:37;;;;;;;2.10;0.40;;;26.00;77.20;;;;;;5043579;28;88903;-50
2022/09/15 10:40:18;;;;;;;2.53;0.20;;;26.00;79.00;;;;;;5043094;28;87083;-50
2022/09/15 10:42:50;;;;;;;0.63;0.60;;;26.00;78.90;;;;;;5044047;28;86323;-50
2022/09/15 10:45:24;;;;;;;0.40;0.40;;;26.00;81.90;;;;;;5043401;28;88803;-50
2022/09/15 10:48:01;;;;;;;1.00;0.50;;;;;;;;;;5043467;28;88859;-50
2022/09/15 10:50:31;;;;;;;0.40;0.40;;;;;;;;;;5043047;28;87831;-51
2022/09/15 10:53:05;;;;;;;0.53;0.33;;;;;;;;;;5043019;28;86944;-52
2022/09/15 10:55:36;;;;;;;2.13;0.60;;;;;;;;;;5041195;28;88811;-50
2022/09/15 10:58:26;;;;;;;2.33;0.40;;;;;;;;;;5022274;28;89115;-50
2022/09/15 11:00:55;;;;;;;0.30;0.30;;;;;;;;;;5022908;28;86750;-50
2022/09/15 11:04:01;;;;;;;3.73;0.40;;;26.10;77.90;;;;;;5023490;28;86922;-50
2022/09/15 11:06:32;;;;;;;0.67;0.60;;;26.10;75.30;;;;;;4976637;28;89115;-50
2022/09/15 11:09:09;;;;;;;0.83;0.47;;;26.10;76.40;;;;;;5010766;28;88729;-50
2022/09/15 11:11:41;;;;;;;1.37;0.53;;;;;;;;;;5022136;28;87036;-50
2022/09/15 11:14:15;;;;;;;1.87;0.50;;;;;;;;;;5021000;28;86928;-50
2022/09/15 11:16:49;;;;;;;1.50;0.50;;;26.10;78.50;;;;;;5021519;28;90122;-50
2022/09/15 11:19:29;;;;;;;2.37;0.70;;;;;;;;;;5022167;28;89836;-50
2022/09/15 11:21:59;;;;;;;0.80;0.40;;;26.30;75.40;;;;;;5022482;28;86957;-49
2022/09/15 11:24:29;;;;;;;1.20;0.30;;;;;;;;;;5022487;28;86979;-50
2022/09/15 11:26:58;;;;;;;0.50;0.50;;;;;;;;;;5021972;28;88895;-50
2022/09/15 11:29:27;;;;;;;2.37;0.60;;;;;;;;;;5021598;28;87773;-50
2022/09/15 11:31:57;;;;;;;0.50;0.50;;;26.20;77.30;;;;;;5022800;28;86986;-50
2022/09/15 11:34:26;;;;;;;0.20;0.20;;;26.30;77.00;;;;;;5022858;28;86383;-50
2022/09/15 11:36:56;;;;;;;0.43;0.30;;;26.20;77.20;;;;;;5022274;28;89042;-50
2022/09/15 11:39:27;;;;;;;0.30;0.30;;;26.30;75.60;;;;;;5024138;28;88507;-50
2022/09/15 11:41:59;;;;;;;0.47;0.47;;;26.30;77.40;;;;;;5042136;28;88450;-50
2022/09/15 11:44:29;;;;;;;0.60;0.40;;;26.30;75.00;;;;;;5032478;28;86947;-50
2022/09/15 11:47:03;;;;;;;0.57;0.30;;;26.30;74.20;;;;;;5020886;28;88190;-49
2022/09/15 11:49:32;;;;;;;0.37;0.37;;;;;;;;;;5022213;28;87420;-49
2022/09/15 11:52:03;;;;;;;0.87;0.30;;;;;;;;;;5021411;28;86936;-50
2022/09/15 11:54:35;;;;;;;0.27;0.27;;;;;;;;;;5031660;28;86970;-50
2022/09/15 11:57:04;;;;;;;2.37;0.33;;;;;;;;;;5042146;28;89137;-50
2022/09/15 11:59:33;;;;;;;1.93;0.70;;;;;;;;;;5042405;28;88749;-50
2022/09/15 12:02:03;;;;;;;0.20;0.20;;;;;;;;;;5042371;28;86960;-50
2022/09/15 12:04:32;;;;;;;3.03;0.40;;;;;;;;;;5034315;28;86969;-50
2022/09/15 12:07:04;;;;;;;2.83;0.63;;;26.50;75.70;;;;;;5021123;28;90115;-50
2022/09/15 12:09:33;;;;;;;4.00;0.47;;;26.50;77.60;;;;;;5021924;28;89878;-50
2022/09/15 12:12:04;;;;;;;1.80;0.40;;;26.50;77.30;;;;;;5021675;28;87551;-50
2022/09/15 12:14:34;;;;;;;0.73;0.30;;;26.50;74.90;;;;;;5019930;28;87102;-50
2022/09/15 12:17:03;;;;;;;1.10;0.37;;;26.50;76.30;;;;;;5019946;28;89267;-49
2022/09/15 12:19:49;;;;;;;4.10;0.60;;;;;;;;;;5020861;28;88815;-50
2022/09/15 12:22:19;;;;;;;0.83;0.57;;;;;;;;;;5021444;28;87191;-52
2022/09/15 12:24:53;;;;;;;0.40;0.40;;;26.50;78.20;;;;;;5022106;28;86501;-51
2022/09/15 12:27:26;;;;;;;0.30;0.30;;;26.60;77.80;;;;;;5020883;28;88998;-51
2022/09/15 12:29:55;;;;;;;0.60;0.40;;;;;;;;;;5020673;28;88502;-49
2022/09/15 12:32:25;;;;;;;2.40;0.63;;;;;;;;;;5021081;28;87702;-50
2022/09/15 12:34:57;;;;;;;4.80;0.33;;;;;;;;;;5022193;28;86849;-50
2022/09/15 12:37:26;;;;;;;0.30;0.30;;;;;;;;;;5021492;28;88963;-50
2022/09/15 12:39:55;;;;;;;0.20;0.20;;;26.10;77.50;;;;;;5021152;28;88567;-50
2022/09/15 12:42:24;;;;;;;1.17;0.23;;;26.60;78.60;;;;;;5021731;28;87030;-51
2022/09/15 12:44:53;;;;;;;2.87;0.50;;;;;;;;;;5020609;28;87139;-51
2022/09/15 12:47:27;;;;;;;0.93;0.20;;;;;;;;;;5028617;28;89087;-51
2022/09/15 12:49:56;;;;;;;0.70;0.30;;;;;;;;;;5041822;28;87674;-51
2022/09/15 12:52:25;;;;;;;3.10;0.50;;;;;;;;;;5041486;28;86986;-51
2022/09/15 12:54:56;;;;;;;0.53;0.43;;;26.60;80.70;;;;;;5040964;28;86964;-49
2022/09/15 12:57:26;;;;;;;0.77;0.60;;;26.60;83.40;;;;;;5040313;28;90185;-49
2022/09/15 13:00:13;;;;;;;0.57;0.40;;;;;;;;;;5040883;28;88706;-50
2022/09/15 13:02:42;;;;;;;0.83;0.30;;;26.90;80.80;;;;;;5041437;28;86952;-49
2022/09/15 13:05:11;;;;;;;0.60;0.30;;;;;;;;;;5040964;28;86878;-50
2022/09/15 13:07:57;;;;;;;0.23;0.23;;;26.60;76.60;;;;;;5041009;28;89201;-49
2022/09/15 13:10:28;;;;;;;0.87;0.30;;;;;;;;;;5040101;28;87596;-50
2022/09/15 13:12:59;;;;;;;0.33;0.20;;;;;;;;;;5041108;28;87014;-49
2022/09/15 13:15:27;;;;;;;0.27;0.20;;;26.60;78.90;;;;;;5030992;28;86197;-50
2022/09/15 13:17:55;;;;;;;0.40;0.40;;;26.60;76.90;;;;;;5040651;28;89084;-50
2022/09/15 13:20:24;;;;;;;1.40;0.40;;;;;;;;;;5038958;28;89052;-50
2022/09/15 13:22:55;;;;;;;0.83;0.40;;;26.70;79.20;;;;;;5040326;28;87810;-50
2022/09/15 13:25:24;;;;;;;0.47;0.47;;;;;;;;;;5040545;28;87094;-50
2022/09/15 13:27:54;;;;;;;0.20;0.20;;;26.60;80.50;;;;;;5040620;28;87144;-50
2022/09/15 13:30:25;;;;;;;0.77;0.30;;;;;;;;;;5040305;28;87400;-50
2022/09/15 13:32:55;;;;;;;0.30;0.20;;;26.70;83.00;;;;;;5041200;28;87002;-50
2022/09/15 13:35:46;;;;;;;2.23;0.20;;;26.70;78.70;;;;;;5040445;27;87041;-50